createdAt,value
2019-05-07T00:02:19.462Z,12.80
2019-05-07T00:04:49.187Z,12.10
2019-05-07T00:07:17.934Z,16.95
2019-05-07T00:09:46.672Z,12.73
2019-05-07T00:12:15.114Z,14.50
2019-05-07T00:14:57.343Z,19.70
2019-05-07T00:17:14.537Z,21.05
2019-05-07T00:19:43.365Z,15.38
2019-05-07T00:22:12.642Z,19.55
2019-05-07T00:24:42.593Z,19.37
2019-05-07T00:27:13.144Z,16.32
2019-05-07T00:29:42.893Z,18.07
2019-05-07T00:32:12.199Z,21.55
2019-05-07T00:34:42.680Z,15.25
2019-05-07T00:37:22.141Z,15.03
2019-05-07T00:39:52.860Z,15.05
2019-05-07T00:42:23.413Z,19.15
2019-05-07T00:45:14.249Z,18.60
2019-05-07T00:47:33.119Z,11.40
2019-05-07T00:50:06.761Z,10.20
2019-05-07T00:52:35.550Z,14.90
2019-05-07T00:55:06.397Z,20.17
2019-05-07T00:57:34.862Z,13.98
2019-05-07T01:00:05.024Z,14.55
2019-05-07T01:02:33.874Z,17.45
2019-05-07T01:05:03.003Z,16.60
2019-05-07T01:07:32.544Z,16.52
2019-05-07T01:10:02.175Z,18.67
2019-05-07T01:12:32.850Z,12.75
2019-05-07T01:15:02.874Z,20.35
2019-05-07T01:17:33.617Z,16.95
2019-05-07T01:20:03.061Z,15.40
2019-05-07T01:22:33.025Z,17.70
2019-05-07T01:25:02.368Z,14.33
2019-05-07T01:27:32.174Z,15.70
2019-05-07T01:30:02.594Z,15.68
2019-05-07T01:32:33.097Z,13.68
2019-05-07T01:35:03.432Z,10.63
2019-05-07T01:37:34.848Z,18.07
2019-05-07T01:40:04.194Z,23.50
2019-05-07T01:42:36.417Z,15.10
2019-05-07T01:45:05.606Z,15.48
2019-05-07T01:47:34.324Z,19.70
2019-05-07T01:50:03.252Z,15.18
2019-05-07T01:52:33.361Z,17.30
2019-05-07T01:55:03.280Z,13.70
2019-05-07T01:57:32.576Z,15.85
2019-05-07T02:00:02.547Z,14.45
2019-05-07T02:02:36.212Z,14.78
2019-05-07T02:05:25.274Z,16.00
2019-05-07T02:07:55.349Z,15.60
2019-05-07T02:10:28.434Z,14.00
2019-05-07T02:12:56.902Z,19.67
2019-05-07T02:15:25.617Z,17.48
2019-05-07T02:17:54.101Z,14.87
2019-05-07T02:20:22.905Z,13.15
2019-05-07T02:22:53.224Z,14.30
2019-05-07T02:25:22.213Z,12.85
2019-05-07T02:27:52.786Z,13.45
2019-05-07T02:30:23.930Z,12.88
2019-05-07T02:32:53.961Z,15.72
2019-05-07T02:35:23.453Z,11.05
2019-05-07T02:37:56.957Z,14.75
2019-05-07T02:40:33.897Z,23.12
2019-05-07T02:43:03.170Z,10.72
2019-05-07T02:45:46.512Z,14.18
2019-05-07T02:48:16.673Z,16.35
2019-05-07T02:50:56.173Z,17.62
2019-05-07T02:53:26.578Z,19.73
2019-05-07T02:55:59.610Z,15.08
2019-05-07T02:58:28.083Z,16.70
2019-05-07T03:00:56.843Z,17.07
2019-05-07T03:03:25.305Z,17.27
2019-05-07T03:05:54.091Z,11.28
2019-05-07T03:08:26.935Z,17.17
2019-05-07T03:10:52.964Z,15.93
2019-05-07T03:13:23.653Z,16.15
2019-05-07T03:15:53.981Z,16.30
2019-05-07T03:18:23.648Z,16.48
2019-05-07T03:20:53.928Z,16.73
2019-05-07T03:23:24.242Z,16.17
2019-05-07T03:25:59.894Z,15.15
2019-05-07T03:28:28.675Z,15.78
2019-05-07T03:30:58.825Z,16.48
2019-05-07T03:33:46.507Z,16.67
2019-05-07T03:36:16.598Z,14.98
2019-05-07T03:38:43.932Z,14.58
2019-05-07T03:41:12.949Z,16.25
2019-05-07T03:43:43.421Z,16.70
2019-05-07T03:46:14.437Z,13.18
2019-05-07T03:48:44.399Z,18.90
2019-05-07T03:51:14.521Z,19.57
2019-05-07T03:53:43.829Z,13.68
2019-05-07T03:56:13.323Z,19.62
2019-05-07T03:58:43.252Z,13.05
2019-05-07T04:01:13.257Z,14.28
2019-05-07T04:03:44.651Z,14.35
2019-05-07T04:06:13.036Z,12.28
2019-05-07T04:08:43.551Z,12.98
2019-05-07T04:11:13.896Z,20.48
2019-05-07T04:13:44.198Z,15.00
2019-05-07T04:16:13.535Z,9.70
2019-05-07T04:18:43.670Z,21.35
2019-05-07T04:21:14.012Z,13.00
2019-05-07T04:23:43.937Z,10.00
2019-05-07T04:26:17.163Z,14.80
2019-05-07T04:28:59.879Z,21.10
2019-05-07T04:31:33.913Z,13.93
2019-05-07T04:34:03.655Z,10.72
2019-05-07T04:36:34.368Z,15.65
2019-05-07T04:39:03.327Z,10.75
2019-05-07T04:41:33.436Z,12.03
2019-05-07T04:44:03.534Z,13.95
2019-05-07T04:46:34.106Z,15.45
2019-05-07T04:49:03.634Z,13.75
2019-05-07T04:51:34.513Z,16.93
2019-05-07T04:54:04.200Z,18.57
2019-05-07T04:56:33.680Z,18.65
2019-05-07T04:59:03.631Z,20.77
2019-05-07T05:01:35.251Z,15.85
2019-05-07T05:04:20.516Z,17.20
2019-05-07T05:06:35.250Z,20.75
2019-05-07T05:09:05.664Z,14.03
2019-05-07T05:11:34.437Z,15.83
2019-05-07T05:14:07.780Z,19.07
2019-05-07T05:16:35.474Z,17.75
2019-05-07T05:19:04.442Z,17.67
2019-05-07T05:21:34.921Z,16.82
2019-05-07T05:24:12.561Z,19.05
2019-05-07T05:26:41.927Z,14.15
2019-05-07T05:29:12.156Z,17.95
2019-05-07T05:31:42.130Z,19.35
2019-05-07T05:34:13.037Z,14.35
2019-05-07T05:36:42.630Z,18.90
2019-05-07T05:39:13.314Z,19.65
2019-05-07T05:41:44.478Z,14.13
2019-05-07T05:44:16.540Z,22.05
2019-05-07T05:46:47.119Z,17.50
2019-05-07T05:49:17.169Z,19.17
2019-05-07T05:51:52.489Z,20.32
2019-05-07T05:54:25.831Z,17.67
2019-05-07T05:57:05.228Z,18.95
2019-05-07T05:59:48.203Z,15.53
2019-05-07T06:02:12.086Z,15.55
2019-05-07T06:04:43.348Z,17.00
2019-05-07T06:07:31.943Z,19.52
2019-05-07T06:10:02.630Z,19.70
2019-05-07T06:12:38.801Z,15.08
2019-05-07T06:15:32.740Z,20.27
2019-05-07T06:18:23.910Z,16.50
2019-05-07T06:20:58.086Z,15.25
2019-05-07T06:23:35.260Z,19.35
2019-05-07T06:26:12.678Z,15.93
2019-05-07T06:28:42.515Z,16.97
2019-05-07T06:31:12.686Z,17.48
2019-05-07T06:33:42.938Z,16.48
2019-05-07T06:36:12.506Z,18.42
2019-05-07T06:38:43.541Z,15.55
2019-05-07T06:41:13.681Z,18.75
2019-05-07T06:43:43.853Z,21.87
2019-05-07T06:46:14.081Z,15.18
2019-05-07T06:48:45.961Z,17.57
2019-05-07T06:51:13.205Z,14.40
2019-05-07T06:53:42.230Z,13.65
2019-05-07T06:56:12.200Z,12.50
2019-05-07T06:58:44.998Z,16.37
2019-05-07T07:01:17.929Z,17.48
2019-05-07T07:04:02.342Z,14.87
2019-05-07T07:06:48.200Z,17.95
2019-05-07T07:09:22.119Z,16.42
2019-05-07T07:11:58.479Z,21.25
2019-05-07T07:14:27.508Z,17.02
2019-05-07T07:16:55.956Z,28.38
2019-05-07T07:19:24.832Z,13.10
2019-05-07T07:21:53.539Z,22.00
2019-05-07T07:24:22.290Z,15.05
2019-05-07T07:26:52.846Z,15.98
2019-05-07T07:29:23.469Z,13.78
2019-05-07T07:31:53.559Z,13.68
2019-05-07T07:34:22.896Z,11.10
2019-05-07T07:37:08.260Z,14.98
2019-05-07T07:39:26.302Z,14.15
2019-05-07T07:41:59.659Z,11.40
2019-05-07T07:44:28.450Z,14.30
2019-05-07T07:46:57.270Z,16.90
2019-05-07T07:49:25.733Z,13.08
2019-05-07T07:51:54.264Z,17.27
2019-05-07T07:54:23.104Z,13.40
2019-05-07T07:57:05.241Z,10.45
2019-05-07T07:59:38.582Z,9.65
2019-05-07T08:02:22.895Z,13.70
2019-05-07T08:04:52.738Z,11.75
2019-05-07T08:07:22.850Z,12.35
2019-05-07T08:09:52.163Z,8.75
2019-05-07T08:12:22.157Z,14.65
2019-05-07T08:14:51.895Z,12.33
2019-05-07T08:17:22.348Z,11.45
2019-05-07T08:19:51.959Z,13.88
2019-05-07T08:22:22.639Z,15.53
2019-05-07T08:24:51.915Z,9.53
2019-05-07T08:27:22.228Z,14.28
2019-05-07T08:29:52.468Z,12.93
2019-05-07T08:32:25.224Z,13.15
2019-05-07T08:34:55.342Z,11.15
2019-05-07T08:37:24.538Z,12.73
2019-05-07T08:39:53.167Z,13.10
2019-05-07T08:42:22.802Z,11.53
2019-05-07T08:45:05.204Z,18.62
2019-05-07T08:47:35.652Z,15.13
2019-05-07T08:50:06.245Z,12.93
2019-05-07T08:52:35.025Z,9.53
2019-05-07T08:55:04.663Z,12.60
2019-05-07T08:57:33.337Z,10.90
2019-05-07T09:00:04.622Z,10.95
2019-05-07T09:02:32.782Z,8.98
2019-05-07T09:05:02.926Z,10.28
2019-05-07T09:07:32.164Z,12.95
2019-05-07T09:10:02.536Z,8.80
2019-05-07T09:12:34.075Z,9.28
2019-05-07T09:15:02.598Z,9.48
2019-05-07T09:17:32.737Z,8.00
2019-05-07T09:20:02.956Z,10.32
2019-05-07T09:22:32.344Z,10.08
2019-05-07T09:25:03.074Z,6.40
2019-05-07T09:27:39.264Z,10.25
2019-05-07T09:30:22.173Z,10.15
2019-05-07T09:32:52.413Z,10.40
2019-05-07T09:35:32.159Z,8.95
2019-05-07T09:38:00.714Z,8.30
2019-05-07T09:40:29.233Z,6.25
2019-05-07T09:42:57.679Z,11.63
2019-05-07T09:45:26.463Z,7.95
2019-05-07T09:47:55.381Z,9.65
2019-05-07T09:50:23.903Z,11.05
2019-05-07T09:52:52.398Z,8.40
2019-05-07T09:55:23.145Z,9.40
2019-05-07T09:57:52.803Z,9.80
2019-05-07T10:00:22.735Z,7.37
2019-05-07T10:02:52.832Z,8.73
2019-05-07T10:05:22.017Z,12.45
2019-05-07T10:07:52.621Z,12.40
2019-05-07T10:10:22.296Z,11.57
2019-05-07T10:13:07.433Z,10.93
2019-05-07T10:15:39.159Z,13.62
2019-05-07T10:18:15.329Z,9.20
2019-05-07T10:20:44.404Z,9.45
2019-05-07T10:23:23.501Z,7.83
2019-05-07T10:25:53.438Z,8.38
2019-05-07T10:28:22.762Z,8.50
2019-05-07T10:30:52.162Z,9.38
2019-05-07T10:33:22.836Z,11.53
2019-05-07T10:35:52.933Z,9.40
2019-05-07T10:38:22.369Z,5.87
2019-05-07T10:40:51.306Z,8.03
2019-05-07T10:43:22.228Z,12.13
2019-05-07T10:46:02.361Z,10.45
2019-05-07T10:48:36.148Z,8.18
2019-05-07T10:51:06.541Z,12.98
2019-05-07T10:53:35.172Z,9.93
2019-05-07T10:56:05.182Z,10.13
2019-05-07T10:58:34.018Z,9.23
2019-05-07T11:01:03.126Z,9.18
2019-05-07T11:03:32.398Z,7.85
2019-05-07T11:06:01.400Z,10.63
2019-05-07T11:08:29.926Z,14.13
2019-05-07T11:10:58.746Z,8.20
2019-05-07T11:13:27.264Z,11.18
2019-05-07T11:16:02.427Z,14.03
2019-05-07T11:18:33.128Z,9.35
2019-05-07T11:21:03.048Z,10.13
2019-05-07T11:23:32.706Z,9.18
2019-05-07T11:26:02.620Z,14.23
2019-05-07T11:28:32.409Z,10.30
2019-05-07T11:31:02.030Z,9.75
2019-05-07T11:33:32.647Z,11.50
2019-05-07T11:36:02.082Z,9.83
2019-05-07T11:38:33.154Z,7.22
2019-05-07T11:41:02.311Z,9.50
2019-05-07T11:43:32.868Z,10.80
2019-05-07T11:46:13.071Z,8.38
2019-05-07T11:48:43.393Z,11.88
2019-05-07T11:51:16.309Z,9.30
2019-05-07T11:54:03.147Z,7.90
2019-05-07T11:56:32.769Z,10.70
2019-05-07T11:59:02.694Z,8.80
2019-05-07T12:01:43.485Z,9.45
2019-05-07T12:04:02.083Z,8.63
2019-05-07T12:06:32.145Z,10.75
2019-05-07T12:09:02.998Z,10.70
2019-05-07T12:11:32.193Z,14.00
2019-05-07T12:14:02.070Z,7.87
2019-05-07T12:16:32.020Z,11.50
2019-05-07T12:19:08.213Z,9.68
2019-05-07T12:21:36.709Z,14.35
2019-05-07T12:24:05.769Z,8.93
2019-05-07T12:26:35.937Z,10.95
2019-05-07T12:29:06.283Z,11.88
2019-05-07T12:31:36.423Z,12.78
2019-05-07T12:34:22.888Z,11.65
2019-05-07T12:36:52.452Z,11.53
2019-05-07T12:39:21.917Z,14.40
2019-05-07T12:41:52.421Z,8.98
2019-05-07T12:44:22.183Z,13.72
2019-05-07T12:46:52.433Z,11.15
2019-05-07T12:49:22.121Z,13.55
2019-05-07T12:51:52.411Z,9.33
2019-05-07T12:54:22.750Z,11.53
2019-05-07T12:56:52.048Z,11.88
2019-05-07T12:59:21.835Z,10.20
2019-05-07T13:01:58.036Z,11.12
2019-05-07T13:04:28.451Z,7.92
2019-05-07T13:06:58.562Z,11.18
2019-05-07T13:09:27.037Z,9.50
2019-05-07T13:11:56.504Z,10.20
2019-05-07T13:14:24.952Z,9.13
2019-05-07T13:16:53.565Z,9.25
2019-05-07T13:19:22.603Z,9.20
2019-05-07T13:21:52.778Z,7.40
2019-05-07T13:24:22.860Z,9.10
2019-05-07T13:26:51.957Z,7.47
2019-05-07T13:29:22.143Z,10.38
2019-05-07T13:31:54.178Z,7.22
2019-05-07T13:34:23.468Z,8.60
2019-05-07T13:36:56.282Z,6.67
2019-05-07T13:39:39.978Z,11.33
2019-05-07T13:42:12.548Z,9.18
2019-05-07T13:44:47.970Z,11.43
2019-05-07T13:47:27.511Z,9.80
2019-05-07T13:49:56.974Z,9.95
2019-05-07T13:52:26.327Z,9.58
2019-05-07T13:54:56.244Z,10.40
2019-05-07T13:57:25.987Z,6.83
2019-05-07T13:59:55.233Z,6.67
2019-05-07T14:02:28.200Z,6.25
2019-05-07T14:04:56.850Z,6.60
2019-05-07T14:07:27.054Z,7.85
2019-05-07T14:09:55.628Z,9.33
2019-05-07T14:12:24.497Z,8.83
2019-05-07T14:14:53.241Z,10.75
2019-05-07T14:17:23.855Z,8.23
2019-05-07T14:19:54.008Z,6.75
2019-05-07T14:22:22.839Z,9.58
2019-05-07T14:24:52.925Z,7.53
2019-05-07T14:27:21.905Z,6.75
2019-05-07T14:29:52.133Z,9.55
2019-05-07T14:32:25.500Z,6.80
2019-05-07T14:35:07.986Z,6.83
2019-05-07T14:37:38.453Z,9.08
2019-05-07T14:40:07.632Z,9.45
2019-05-07T14:42:38.532Z,10.58
2019-05-07T14:45:07.935Z,7.47
2019-05-07T14:47:37.001Z,7.22
2019-05-07T14:50:08.050Z,7.78
2019-05-07T14:52:36.678Z,8.10
2019-05-07T14:55:06.935Z,10.08
2019-05-07T14:57:36.576Z,7.83
2019-05-07T15:00:07.205Z,6.62
2019-05-07T15:02:36.202Z,7.83
2019-05-07T15:05:07.893Z,11.20
2019-05-07T15:07:37.059Z,10.65
2019-05-07T15:10:10.467Z,9.55
2019-05-07T15:12:39.830Z,12.05
2019-05-07T15:15:12.610Z,8.95
2019-05-07T15:17:45.978Z,11.95
2019-05-07T15:20:15.134Z,10.80
2019-05-07T15:22:49.427Z,9.08
2019-05-07T15:25:16.132Z,8.25
2019-05-07T15:27:45.779Z,8.48
2019-05-07T15:30:15.675Z,6.70
2019-05-07T15:32:45.602Z,7.25
2019-05-07T15:35:15.830Z,7.05
2019-05-07T15:37:44.616Z,5.60
2019-05-07T15:40:15.122Z,7.22
2019-05-07T15:42:43.648Z,6.33
2019-05-07T15:45:15.640Z,5.55
2019-05-07T15:47:48.785Z,8.13
2019-05-07T15:50:17.480Z,8.00
2019-05-07T15:52:58.101Z,8.33
2019-05-07T15:55:18.381Z,7.55
2019-05-07T15:57:52.103Z,6.65
2019-05-07T16:00:22.937Z,5.78
2019-05-07T16:02:58.154Z,7.40
2019-05-07T16:05:26.952Z,7.12
2019-05-07T16:07:56.951Z,7.75
2019-05-07T16:10:25.819Z,9.30
2019-05-07T16:12:54.659Z,9.13
2019-05-07T16:15:24.438Z,8.78
2019-05-07T16:17:56.092Z,6.03
2019-05-07T16:20:24.572Z,5.25
2019-05-07T16:23:10.875Z,7.30
2019-05-07T16:25:28.201Z,7.37
2019-05-07T16:27:58.638Z,7.97
2019-05-07T16:30:27.524Z,9.15
2019-05-07T16:32:56.347Z,7.37
2019-05-07T16:35:25.197Z,8.10
2019-05-07T16:37:53.711Z,5.55
2019-05-07T16:40:23.004Z,5.50
2019-05-07T16:42:52.397Z,7.62
2019-05-07T16:45:21.377Z,5.47
2019-05-07T16:47:51.980Z,7.67
2019-05-07T16:50:22.167Z,7.40
2019-05-07T16:52:52.410Z,9.30
2019-05-07T16:55:22.436Z,8.50
2019-05-07T16:58:08.896Z,6.08
2019-05-07T17:00:39.065Z,6.12
2019-05-07T17:03:09.236Z,7.12
2019-05-07T17:05:37.771Z,7.67
2019-05-07T17:08:08.919Z,6.87
2019-05-07T17:10:37.402Z,5.78
2019-05-07T17:13:06.361Z,4.80
2019-05-07T17:15:36.471Z,14.70
2019-05-07T17:18:05.063Z,7.72
2019-05-07T17:20:33.951Z,6.00
2019-05-07T17:23:02.982Z,5.15
2019-05-07T17:25:37.965Z,6.33
2019-05-07T17:28:08.345Z,5.78
2019-05-07T17:30:38.169Z,5.92
2019-05-07T17:33:07.252Z,5.85
2019-05-07T17:35:35.860Z,8.00
2019-05-07T17:38:08.983Z,12.30
2019-05-07T17:40:35.004Z,9.23
2019-05-07T17:43:03.595Z,11.63
2019-05-07T17:45:32.925Z,6.97
2019-05-07T17:48:03.161Z,12.65
2019-05-07T17:50:42.537Z,8.10
2019-05-07T17:53:11.941Z,17.73
2019-05-07T17:55:42.326Z,9.05
2019-05-07T17:58:12.909Z,7.08
2019-05-07T18:00:43.372Z,12.23
2019-05-07T18:03:16.554Z,11.88
2019-05-07T18:05:45.291Z,7.50
2019-05-07T18:08:14.002Z,6.75
2019-05-07T18:10:42.723Z,6.67
2019-05-07T18:13:11.930Z,7.47
2019-05-07T18:15:42.607Z,7.40
2019-05-07T18:18:14.104Z,8.95
2019-05-07T18:20:44.124Z,5.58
2019-05-07T18:23:16.797Z,9.28
2019-05-07T18:25:43.092Z,8.10
2019-05-07T18:28:12.618Z,7.45
2019-05-07T18:30:41.553Z,6.17
2019-05-07T18:33:18.669Z,8.23
2019-05-07T18:35:48.955Z,7.35
2019-05-07T18:38:17.637Z,12.82
2019-05-07T18:40:46.540Z,7.42
2019-05-07T18:43:15.159Z,9.58
2019-05-07T18:45:43.893Z,7.10
2019-05-07T18:48:12.453Z,7.10
2019-05-07T18:50:44.093Z,8.45
2019-05-07T18:53:13.001Z,7.87
2019-05-07T18:55:42.348Z,8.70
2019-05-07T18:58:13.193Z,9.18
2019-05-07T19:00:52.381Z,7.40
2019-05-07T19:03:21.845Z,10.03
2019-05-07T19:05:52.022Z,8.30
2019-05-07T19:08:22.931Z,6.25
2019-05-07T19:10:52.184Z,6.10
2019-05-07T19:13:22.329Z,8.73
2019-05-07T19:15:52.752Z,9.25
2019-05-07T19:18:22.992Z,11.83
2019-05-07T19:20:57.187Z,9.08
2019-05-07T19:23:23.037Z,9.80
2019-05-07T19:25:52.226Z,8.18
2019-05-07T19:28:22.803Z,10.60
2019-05-07T19:30:52.757Z,10.70
2019-05-07T19:33:26.156Z,8.53
2019-05-07T19:35:52.826Z,10.20
2019-05-07T19:38:21.515Z,9.28
2019-05-07T19:40:50.077Z,10.23
2019-05-07T19:43:19.133Z,15.98
2019-05-07T19:45:47.744Z,9.23
2019-05-07T19:48:16.510Z,10.85
2019-05-07T19:50:44.971Z,9.90
2019-05-07T19:53:13.822Z,8.90
2019-05-07T19:56:02.051Z,9.25
2019-05-07T19:58:32.629Z,14.45
2019-05-07T20:01:02.274Z,8.90
2019-05-07T20:03:32.354Z,8.30
2019-05-07T20:06:02.427Z,11.05
2019-05-07T20:08:32.330Z,8.18
2019-05-07T20:11:12.997Z,12.15
2019-05-07T20:13:43.638Z,12.90
2019-05-07T20:16:19.163Z,11.33
2019-05-07T20:18:48.373Z,12.98
2019-05-07T20:21:17.128Z,12.33
2019-05-07T20:23:47.347Z,13.38
2019-05-07T20:26:16.704Z,13.72
2019-05-07T20:28:45.226Z,13.98
2019-05-07T20:31:14.014Z,14.35
2019-05-07T20:33:42.558Z,13.53
2019-05-07T20:36:11.730Z,13.18
2019-05-07T20:38:42.705Z,11.97
2019-05-07T20:41:12.939Z,11.20
2019-05-07T20:43:42.837Z,16.05
2019-05-07T20:46:12.952Z,9.58
2019-05-07T20:48:42.436Z,11.35
2019-05-07T20:51:13.103Z,15.03
2019-05-07T20:53:58.934Z,13.40
2019-05-07T20:56:32.375Z,12.30
2019-05-07T20:59:02.893Z,10.32
2019-05-07T21:01:34.929Z,15.53
2019-05-07T21:04:03.815Z,10.65
2019-05-07T21:06:32.513Z,8.88
2019-05-07T21:09:01.897Z,12.37
2019-05-07T21:11:32.311Z,14.13
2019-05-07T21:14:03.071Z,12.95
2019-05-07T21:16:32.724Z,14.00
2019-05-07T21:19:01.998Z,13.20
2019-05-07T21:21:35.546Z,8.98
2019-05-07T21:24:04.121Z,11.53
2019-05-07T21:26:32.878Z,10.35
2019-05-07T21:29:03.075Z,13.83
2019-05-07T21:31:32.334Z,9.95
2019-05-07T21:34:04.223Z,14.55
2019-05-07T21:36:36.097Z,11.83
2019-05-07T21:39:08.252Z,11.65
2019-05-07T21:41:37.279Z,13.53
2019-05-07T21:44:16.913Z,12.98
2019-05-07T21:47:03.708Z,14.80
2019-05-07T21:49:32.169Z,11.93
2019-05-07T21:52:07.468Z,13.85
2019-05-07T21:54:38.164Z,13.72
2019-05-07T21:57:08.473Z,13.20
2019-05-07T21:59:38.735Z,14.75
2019-05-07T22:02:12.706Z,15.38
2019-05-07T22:04:42.144Z,11.68
2019-05-07T22:07:12.192Z,16.20
2019-05-07T22:09:41.186Z,15.98
2019-05-07T22:12:11.959Z,12.35
2019-05-07T22:14:40.302Z,15.83
2019-05-07T22:17:09.075Z,14.65
2019-05-07T22:19:38.378Z,14.90
2019-05-07T22:22:07.098Z,13.10
2019-05-07T22:24:35.595Z,13.68
2019-05-07T22:27:04.494Z,16.12
2019-05-07T22:29:33.310Z,16.55
2019-05-07T22:32:19.604Z,20.65
2019-05-07T22:34:51.875Z,15.58
2019-05-07T22:37:21.941Z,14.45
2019-05-07T22:39:50.638Z,19.05
2019-05-07T22:42:19.084Z,16.57
2019-05-07T22:44:47.534Z,13.88
2019-05-07T22:47:19.095Z,14.85
2019-05-07T22:49:48.926Z,18.67
2019-05-07T22:52:17.728Z,18.55
2019-05-07T22:54:46.371Z,18.48
2019-05-07T22:57:26.022Z,13.95
2019-05-07T22:59:54.494Z,20.65
2019-05-07T23:02:22.956Z,13.72
2019-05-07T23:04:52.150Z,15.93
2019-05-07T23:07:22.264Z,14.20
2019-05-07T23:09:52.210Z,13.10
2019-05-07T23:12:22.003Z,20.55
2019-05-07T23:14:51.810Z,15.20
2019-05-07T23:17:22.203Z,15.55
2019-05-07T23:19:53.014Z,12.58
2019-05-07T23:22:22.693Z,13.83
2019-05-07T23:24:52.099Z,13.18
2019-05-07T23:27:23.141Z,12.88
2019-05-07T23:29:52.866Z,12.68
2019-05-07T23:32:22.261Z,12.20
2019-05-07T23:34:53.740Z,13.40
2019-05-07T23:37:22.584Z,16.40
2019-05-07T23:39:52.947Z,17.32
2019-05-07T23:42:23.451Z,15.05
2019-05-07T23:44:53.319Z,13.15
2019-05-07T23:47:22.718Z,11.48
2019-05-07T23:49:52.382Z,18.65
2019-05-07T23:52:22.518Z,14.07
2019-05-07T23:54:59.279Z,13.50
2019-05-07T23:57:28.093Z,15.15
2019-05-07T23:59:56.543Z,13.85
